Time;durP1;ratioP1;P1;durP2;ratioP2;P2;SDS_P1;SDS_P2;PMS_P1;PMS_P2;Temp;Humidity;BMP_temperature;BMP_pressure;BME280_temperature;BME280_humidity;BME280_pressure;Samples;Min_cycle;Max_cycle;Signal;HPM_P1;HPM_P2
2023/02/17 00:01:01;;;;;;;18.55;15.85;;;;;;;11.41;73.38;100701.34;4995797;28;20058;-62
2023/02/17 00:03:30;;;;;;;19.67;16.83;;;;;;;11.48;73.05;100704.53;4996329;28;20061;-62
2023/02/17 00:06:06;;;;;;;18.88;16.88;;;;;;;11.54;72.68;100700.47;4993679;28;20055;-61
2023/02/17 00:08:33;;;;;;;18.55;15.98;;;;;;;11.61;72.65;100692.47;4996016;28;20050;-61
2023/02/17 00:11:00;;;;;;;19.52;16.38;;;;;;;11.66;71.48;100697.97;4995972;28;20055;-61
2023/02/17 00:13:28;;;;;;;17.70;15.82;;;;;;;11.71;71.98;100697.00;4995672;28;20058;-60
2023/02/17 00:15:55;;;;;;;18.67;15.70;;;;;;;11.76;71.62;100692.13;4996202;28;20065;-61
2023/02/17 00:18:27;;;;;;;16.85;15.13;;;;;;;11.79;71.86;100687.88;4995824;28;20050;-65
2023/02/17 00:20:54;;;;;;;17.40;15.30;;;;;;;11.91;71.37;100692.94;4994055;28;20062;-61
2023/02/17 00:23:25;;;;;;;16.58;14.60;;;;;;;11.94;70.77;100689.47;4995601;28;20058;-61
2023/02/17 00:25:53;;;;;;;17.98;14.85;;;;;;;11.91;70.61;100684.56;4995349;28;20503;-61
2023/02/17 00:28:20;;;;;;;17.15;14.75;;;;;;;11.97;70.49;100680.50;4995662;28;20385;-61
2023/02/17 00:30:49;;;;;;;16.95;14.05;;;;;;;11.93;70.39;100673.88;4995543;28;20069;-61
2023/02/17 00:33:17;;;;;;;21.10;14.60;;;;;;;11.88;70.70;100671.19;4995045;28;20058;-61
2023/02/17 00:35:44;;;;;;;16.45;14.55;;;;;;;11.92;70.59;100672.22;4994059;28;20069;-62
2023/02/17 00:38:11;;;;;;;16.42;13.48;;;;;;;11.90;70.70;100657.75;4993288;28;20046;-61
2023/02/17 00:40:44;;;;;;;17.05;14.02;;;;;;;11.95;70.67;100657.66;4995183;28;20061;-62
2023/02/17 00:43:14;;;;;;;18.10;14.75;;;;;;;11.89;70.79;100661.72;4995379;28;20403;-62
2023/02/17 00:45:43;;;;;;;15.73;13.80;;;;;;;11.98;70.76;100651.41;4995355;28;20050;-61
2023/02/17 00:48:10;;;;;;;17.02;13.25;;;;;;;11.97;70.79;100652.56;4995329;28;20050;-61
2023/02/17 00:50:37;;;;;;;14.82;13.23;;;;;;;11.91;71.14;100649.06;4993511;28;20050;-62
2023/02/17 00:53:04;;;;;;;15.18;13.13;;;;;;;11.90;70.97;100661.38;4995322;28;20054;-62
2023/02/17 00:55:32;;;;;;;16.73;14.82;;;;;;;11.83;71.53;100646.22;4995191;28;20388;-60
2023/02/17 00:58:01;;;;;;;18.45;14.90;;;;;;;11.86;71.46;100643.56;4995109;28;20100;-60
2023/02/17 01:00:28;;;;;;;15.98;13.15;;;;;;;11.85;71.64;100646.72;4994947;28;20479;-61
2023/02/17 01:02:57;;;;;;;17.90;14.27;;;;;;;11.71;71.86;100639.22;4994744;28;20073;-61
2023/02/17 01:05:24;;;;;;;16.02;14.00;;;;;;;11.78;72.15;100647.97;4995988;28;20050;-61
2023/02/17 01:07:53;;;;;;;16.27;13.40;;;;;;;11.79;71.89;100637.63;4994196;28;20054;-62
2023/02/17 01:10:21;;;;;;;18.80;15.25;;;;;;;11.75;72.16;100629.06;4995049;28;20085;-61
2023/02/17 01:12:48;;;;;;;15.10;13.32;;;;;;;11.69;72.15;100635.09;4993877;28;20054;-61
2023/02/17 01:15:17;;;;;;;16.70;14.27;;;;;;;11.75;72.17;100631.84;4994360;28;20054;-61
2023/02/17 01:17:44;;;;;;;16.92;13.75;;;;;;;11.79;72.50;100630.09;4994753;28;20050;-61
2023/02/17 01:20:12;;;;;;;15.77;13.32;;;;;;;11.85;71.86;100629.97;4993369;28;20057;-61
2023/02/17 01:22:39;;;;;;;18.08;14.27;;;;;;;11.74;72.41;100633.03;4994585;28;20065;-61
2023/02/17 01:25:07;;;;;;;16.63;13.80;;;;;;;11.77;72.42;100632.38;4994479;28;20070;-61
2023/02/17 01:27:35;;;;;;;15.32;13.10;;;;;;;11.83;72.85;100626.66;4994106;28;20065;-61
2023/02/17 01:30:02;;;;;;;15.13;13.45;;;;;;;11.84;72.63;100619.94;4993989;28;20065;-61
2023/02/17 01:32:31;;;;;;;16.15;13.45;;;;;;;11.95;72.48;100611.00;4992683;28;20061;-61
2023/02/17 01:34:58;;;;;;;16.95;14.10;;;;;;;11.89;72.71;100622.63;4988884;28;20053;-61
2023/02/17 01:37:25;;;;;;;13.85;12.20;;;;;;;11.94;72.22;100616.91;4993200;28;20050;-61
2023/02/17 01:39:53;;;;;;;16.35;12.43;;;;;;;12.05;72.15;100606.28;4993820;28;20050;-61
2023/02/17 01:42:20;;;;;;;16.77;12.52;;;;;;;12.03;72.33;100603.81;4994247;28;20054;-61
2023/02/17 01:45:23;;;;;;;13.82;12.43;;;;;;;12.03;72.36;100600.19;4994049;28;20483;-61
2023/02/17 01:47:56;;;;;;;14.60;13.10;;;;;;;12.01;72.55;100589.38;4987056;28;20058;-61
2023/02/17 01:50:30;;;;;;;15.45;12.90;;;;;;;12.03;72.56;100589.03;4990328;28;20406;-61
2023/02/17 01:53:01;;;;;;;14.43;12.85;;;;;;;12.00;72.64;100587.72;4994114;28;20050;-61
2023/02/17 01:55:31;;;;;;;13.63;12.23;;;;;;;11.95;72.96;100582.28;4993991;28;20073;-61
2023/02/17 01:58:01;;;;;;;15.73;12.85;;;;;;;12.04;72.54;100582.31;4993445;28;20057;-61
2023/02/17 02:00:30;;;;;;;14.73;11.38;;;;;;;12.11;72.46;100585.44;4993542;28;20062;-61
2023/02/17 02:03:01;;;;;;;11.63;10.43;;;;;;;12.12;72.39;100576.75;4993504;28;20061;-60
2023/02/17 02:05:29;;;;;;;12.57;11.23;;;;;;;12.11;72.39;100571.50;4991618;28;20493;-61
2023/02/17 02:07:57;;;;;;;12.50;11.18;;;;;;;12.12;72.57;100573.16;4992793;28;20399;-61
2023/02/17 02:10:24;;;;;;;12.63;11.30;;;;;;;12.16;72.48;100577.75;4993617;28;20050;-61
2023/02/17 02:12:51;;;;;;;13.57;11.40;;;;;;;12.23;72.30;100573.69;4993891;28;20094;-61
2023/02/17 02:15:21;;;;;;;11.85;10.57;;;;;;;12.19;72.46;100579.91;4993379;28;20069;-61
2023/02/17 02:18:07;;;;;;;14.05;11.52;;;;;;;12.16;72.77;100574.16;4993772;28;20062;-61
2023/02/17 02:21:10;;;;;;;12.82;11.43;;;;;;;12.24;72.36;100580.91;4996016;28;20054;-61
2023/02/17 02:23:53;;;;;;;12.68;10.63;;;;;;;12.16;72.92;100574.97;4981602;28;20418;-61
2023/02/17 02:26:49;;;;;;;12.20;10.90;;;;;;;12.17;72.43;100570.19;5012578;28;20058;-60
2023/02/17 02:29:36;;;;;;;13.05;10.80;;;;;;;12.26;72.52;100561.84;5013136;28;20383;-61
2023/02/17 02:32:25;;;;;;;12.50;11.20;;;;;;;12.23;72.54;100568.09;5013022;28;20053;-61
2023/02/17 02:35:00;;;;;;;13.10;11.77;;;;;;;12.24;72.76;100565.00;5008926;28;20415;-61
2023/02/17 02:37:35;;;;;;;12.52;11.23;;;;;;;12.21;72.40;100564.81;4992336;28;20055;-61
2023/02/17 02:40:06;;;;;;;12.38;11.05;;;;;;;12.21;72.74;100565.63;4993121;28;20463;-61
2023/02/17 02:42:35;;;;;;;12.68;10.85;;;;;;;12.22;72.50;100572.03;4993033;28;20061;-61
2023/02/17 02:45:05;;;;;;;12.75;11.50;;;;;;;12.30;72.31;100574.03;4993041;28;20061;-61
2023/02/17 02:47:49;;;;;;;12.45;11.25;;;;;;;12.23;72.42;100568.09;4993418;28;20061;-61
2023/02/17 02:50:20;;;;;;;12.95;11.63;;;;;;;12.22;73.00;100569.22;4991997;28;20168;-60
2023/02/17 02:52:58;;;;;;;17.27;12.25;;;;;;;12.23;72.87;100568.09;4973550;28;20073;-60
2023/02/17 02:55:35;;;;;;;12.07;10.88;;;;;;;12.26;72.17;100561.84;4975640;28;20472;-61
2023/02/17 02:58:12;;;;;;;11.95;10.68;;;;;;;12.17;72.30;100551.47;4993177;28;20058;-61
2023/02/17 03:00:46;;;;;;;12.80;11.50;;;;;;;12.16;72.63;100538.66;4992111;28;20050;-61
2023/02/17 03:03:20;;;;;;;12.82;11.40;;;;;;;12.12;73.22;100540.47;4993147;28;20430;-61
2023/02/17 03:05:55;;;;;;;13.25;11.48;;;;;;;12.22;72.73;100536.56;4991548;28;20054;-61
2023/02/17 03:08:30;;;;;;;14.02;11.80;;;;;;;12.20;72.47;100533.28;4993174;28;20077;-61
2023/02/17 03:10:57;;;;;;;12.38;10.85;;;;;;;12.17;71.93;100526.34;4993033;28;20058;-61
2023/02/17 03:13:25;;;;;;;15.15;12.30;;;;;;;12.08;72.71;100514.34;4993346;28;20085;-61
2023/02/17 03:15:52;;;;;;;12.02;10.82;;;;;;;12.16;72.63;100533.09;4993047;28;20054;-61
2023/02/17 03:18:21;;;;;;;12.00;10.75;;;;;;;12.13;72.10;100516.97;4993277;28;20058;-61
2023/02/17 03:20:54;;;;;;;12.50;11.10;;;;;;;12.18;72.02;100522.41;4991176;28;20058;-61
2023/02/17 03:23:21;;;;;;;12.02;10.68;;;;;;;12.15;71.99;100519.44;4992452;28;20057;-62
2023/02/17 03:25:49;;;;;;;11.20;10.10;;;;;;;12.18;71.52;100508.44;4992585;28;20398;-61
2023/02/17 03:28:17;;;;;;;12.13;10.10;;;;;;;12.18;71.25;100505.66;4993155;28;20058;-61
2023/02/17 03:30:44;;;;;;;12.13;10.82;;;;;;;12.18;71.50;100527.19;4993112;28;20483;-61
2023/02/17 03:33:12;;;;;;;11.50;10.23;;;;;;;12.10;71.79;100523.22;4992506;28;20058;-61
2023/02/17 03:35:40;;;;;;;11.25;10.05;;;;;;;12.19;71.63;100520.44;4991993;28;20054;-61
2023/02/17 03:38:07;;;;;;;10.80;9.70;;;;;;;12.29;70.97;100524.91;4991910;28;20062;-61
2023/02/17 03:40:35;;;;;;;11.75;10.00;;;;;;;12.26;70.66;100533.94;4992620;28;20454;-61
2023/02/17 03:43:02;;;;;;;12.43;9.90;;;;;;;12.27;70.10;100530.81;4992459;28;20065;-60
2023/02/17 03:45:29;;;;;;;10.45;9.45;;;;;;;12.25;70.00;100535.09;4992676;28;20058;-60
2023/02/17 03:47:56;;;;;;;10.98;9.65;;;;;;;12.30;69.99;100521.78;4992733;28;20411;-61
2023/02/17 03:50:24;;;;;;;10.65;9.52;;;;;;;12.37;69.61;100526.91;4991532;28;20061;-60
2023/02/17 03:52:52;;;;;;;11.63;9.50;;;;;;;12.36;70.05;100530.84;4991790;28;20058;-61
2023/02/17 03:55:19;;;;;;;9.45;8.48;;;;;;;12.42;69.37;100518.34;4992862;28;20050;-61
2023/02/17 03:57:47;;;;;;;10.02;8.80;;;;;;;12.44;69.46;100521.66;4995759;28;20058;-61
2023/02/17 04:00:15;;;;;;;9.93;8.93;;;;;;;12.39;69.33;100522.63;4996129;28;20058;-60
2023/02/17 04:02:42;;;;;;;10.05;8.98;;;;;;;12.37;69.65;100518.53;4996049;28;20399;-60
2023/02/17 04:05:09;;;;;;;10.05;8.88;;;;;;;12.42;69.04;100526.75;4996266;28;20480;-61
2023/02/17 04:07:37;;;;;;;9.52;8.63;;;;;;;12.50;68.68;100520.34;4993993;28;20050;-60
2023/02/17 04:10:07;;;;;;;9.43;8.45;;;;;;;12.48;68.59;100533.81;4995834;28;20487;-61
2023/02/17 04:12:34;;;;;;;9.35;8.45;;;;;;;12.48;68.43;100542.19;4995912;28;20060;-61
2023/02/17 04:15:01;;;;;;;9.00;8.02;;;;;;;12.55;68.82;100536.94;4995741;28;20148;-60
2023/02/17 04:17:28;;;;;;;9.77;8.77;;;;;;;12.51;68.40;100535.94;4995527;28;20514;-64
2023/02/17 04:19:56;;;;;;;10.88;8.18;;;;;;;12.56;68.10;100549.78;4995608;28;20050;-61
2023/02/17 04:22:23;;;;;;;9.73;8.38;;;;;;;12.54;68.10;100546.50;4994208;28;20057;-60
2023/02/17 04:24:50;;;;;;;9.32;8.00;;;;;;;12.63;68.15;100548.47;4995330;28;20054;-61
2023/02/17 04:27:19;;;;;;;9.93;8.07;;;;;;;12.62;67.83;100547.66;4995405;28;20058;-61
2023/02/17 04:29:47;;;;;;;9.48;8.40;;;;;;;12.54;68.21;100551.25;4995349;28;20051;-61
2023/02/17 04:32:14;;;;;;;10.18;7.65;;;;;;;12.58;67.98;100525.13;4995172;28;20491;-60
2023/02/17 04:34:41;;;;;;;10.25;8.57;;;;;;;12.64;67.46;100530.53;4995117;28;20380;-61
2023/02/17 04:37:09;;;;;;;9.18;7.85;;;;;;;12.64;67.43;100523.00;4994188;28;20054;-60
2023/02/17 04:39:39;;;;;;;9.02;7.82;;;;;;;12.63;67.76;100528.91;4995470;28;20055;-61
2023/02/17 04:42:06;;;;;;;8.55;7.65;;;;;;;12.64;67.68;100530.53;4995377;28;20066;-61
2023/02/17 04:44:35;;;;;;;8.50;7.30;;;;;;;12.70;67.67;100532.03;4995119;28;20065;-61
2023/02/17 04:47:02;;;;;;;8.25;7.10;;;;;;;12.70;67.48;100512.47;4995127;28;20050;-60
2023/02/17 04:49:30;;;;;;;9.38;7.45;;;;;;;12.69;67.73;100494.88;4995342;28;20388;-60
2023/02/17 04:51:57;;;;;;;9.77;8.70;;;;;;;12.62;67.25;100502.94;4993138;28;20062;-61
2023/02/17 04:54:24;;;;;;;9.25;8.32;;;;;;;12.64;67.15;100519.38;4994920;28;20054;-61
2023/02/17 04:56:51;;;;;;;10.98;8.70;;;;;;;12.70;67.50;100515.25;4994632;28;20061;-60
2023/02/17 04:59:18;;;;;;;9.90;8.48;;;;;;;12.66;67.72;100525.44;4994827;28;20054;-61
2023/02/17 05:01:47;;;;;;;10.82;9.57;;;;;;;12.67;67.56;100515.94;4995642;28;20479;-60
2023/02/17 05:04:14;;;;;;;9.90;8.90;;;;;;;12.52;68.11;100503.25;4995110;28;20057;-61
2023/02/17 05:06:42;;;;;;;11.15;9.15;;;;;;;12.55;67.59;100506.22;4993181;28;20419;-61
2023/02/17 05:09:09;;;;;;;10.45;9.07;;;;;;;12.53;67.85;100499.31;4993749;28;20400;-60
2023/02/17 05:11:36;;;;;;;11.18;9.20;;;;;;;12.50;68.00;100489.63;4994830;28;20050;-60
2023/02/17 05:14:05;;;;;;;10.77;9.38;;;;;;;12.45;67.59;100486.16;4994662;28;20054;-60
2023/02/17 05:16:32;;;;;;;10.35;9.25;;;;;;;12.45;67.86;100474.97;4994301;28;20054;-61
2023/02/17 05:19:03;;;;;;;10.25;9.18;;;;;;;12.50;68.16;100483.22;4993194;28;20402;-61
2023/02/17 05:21:30;;;;;;;9.25;8.35;;;;;;;12.47;67.58;100490.25;4993736;28;20085;-61
2023/02/17 05:23:57;;;;;;;12.60;8.90;;;;;;;12.50;67.71;100488.81;4994502;28;20054;-60
2023/02/17 05:26:25;;;;;;;9.27;8.38;;;;;;;12.54;67.61;100503.75;4994086;28;20085;-61
2023/02/17 05:28:52;;;;;;;10.18;9.07;;;;;;;12.55;67.53;100509.00;4994328;28;20061;-60
2023/02/17 05:31:19;;;;;;;9.88;8.73;;;;;;;12.59;67.63;100515.59;4994404;28;20050;-61
2023/02/17 05:33:46;;;;;;;9.25;8.32;;;;;;;12.62;67.10;100502.94;4994051;28;20054;-61
2023/02/17 05:36:15;;;;;;;10.77;9.05;;;;;;;12.69;67.68;100519.22;4993276;28;20057;-61
2023/02/17 05:38:44;;;;;;;11.02;9.40;;;;;;;12.72;67.02;100518.56;4988977;28;20054;-61
2023/02/17 05:41:12;;;;;;;9.82;8.75;;;;;;;12.69;67.02;100508.84;4990697;28;20057;-60
2023/02/17 05:43:39;;;;;;;9.65;8.75;;;;;;;12.72;67.25;100507.38;4990934;28;20055;-60
2023/02/17 05:46:06;;;;;;;10.15;9.02;;;;;;;12.70;67.51;100515.25;4993044;28;20050;-60
2023/02/17 05:48:34;;;;;;;9.27;8.18;;;;;;;12.77;66.60;100510.84;4992313;28;20499;-60
2023/02/17 05:51:01;;;;;;;9.57;8.65;;;;;;;12.77;66.53;100504.44;4993173;28;20054;-60
2023/02/17 05:53:30;;;;;;;10.10;8.50;;;;;;;12.85;66.26;100491.59;4993258;28;20054;-61
2023/02/17 05:55:57;;;;;;;10.25;9.20;;;;;;;12.76;67.23;100491.59;4993920;28;20054;-60
2023/02/17 05:58:26;;;;;;;10.00;9.00;;;;;;;12.73;66.54;100486.69;4993671;28;20053;-60
2023/02/17 06:00:53;;;;;;;9.65;8.75;;;;;;;12.67;66.84;100508.38;4991129;28;20054;-60
2023/02/17 06:03:20;;;;;;;9.77;8.77;;;;;;;12.67;67.83;100544.69;4992294;28;20050;-60
2023/02/17 06:05:47;;;;;;;9.30;8.40;;;;;;;12.62;67.54;100497.38;4993340;28;20176;-61
2023/02/17 06:08:14;;;;;;;10.27;9.27;;;;;;;12.67;67.75;100508.38;4989280;28;20061;-60
2023/02/17 06:10:43;;;;;;;10.55;8.15;;;;;;;12.67;67.90;100497.19;4993094;28;20053;-60
2023/02/17 06:13:10;;;;;;;11.18;8.55;;;;;;;12.58;68.03;100491.59;4993341;28;20054;-60
2023/02/17 06:15:37;;;;;;;10.38;8.30;;;;;;;12.68;67.33;100484.88;4992169;28;20400;-60
2023/02/17 06:18:05;;;;;;;9.27;8.30;;;;;;;12.67;67.72;100479.59;4984231;28;20487;-61
2023/02/17 06:20:32;;;;;;;12.60;8.30;;;;;;;12.62;67.92;100465.78;4991586;28;20061;-61
2023/02/17 06:22:59;;;;;;;10.27;8.90;;;;;;;12.63;67.95;100475.81;4990308;28;20050;-60
2023/02/17 06:25:27;;;;;;;9.82;8.25;;;;;;;12.54;68.66;100471.06;4992649;28;20065;-61
2023/02/17 06:27:55;;;;;;;9.82;8.75;;;;;;;12.54;68.58;100451.50;4992787;28;20062;-61
2023/02/17 06:30:22;;;;;;;9.95;8.48;;;;;;;12.52;68.33;100481.72;4984565;28;20054;-60
2023/02/17 06:32:50;;;;;;;9.27;8.38;;;;;;;12.54;68.36;100490.59;4986253;28;20062;-60
2023/02/17 06:35:18;;;;;;;8.55;7.65;;;;;;;12.53;68.30;100474.97;4992142;28;20065;-60
2023/02/17 06:37:45;;;;;;;10.73;8.98;;;;;;;12.60;69.00;100477.31;4990171;28;20058;-60
2023/02/17 06:40:13;;;;;;;10.00;9.00;;;;;;;12.63;68.17;100499.00;4992049;28;20066;-60
2023/02/17 06:42:40;;;;;;;9.57;8.57;;;;;;;12.61;68.55;100494.88;4991640;28;20077;-61
2023/02/17 06:45:09;;;;;;;10.68;9.05;;;;;;;12.60;68.65;100494.06;4989217;28;20054;-61
2023/02/17 06:47:36;;;;;;;9.25;8.25;;;;;;;12.61;68.63;100494.88;4990831;28;20050;-60
2023/02/17 06:50:05;;;;;;;11.60;9.40;;;;;;;12.64;69.02;100488.63;4992784;28;20054;-60
2023/02/17 06:52:32;;;;;;;9.80;8.63;;;;;;;12.68;68.71;100472.84;4988508;28;20053;-61
2023/02/17 06:55:00;;;;;;;9.70;8.50;;;;;;;12.61;69.02;100478.13;4973284;28;20055;-60
2023/02/17 06:57:28;;;;;;;10.30;9.20;;;;;;;12.65;68.64;100479.13;4988247;28;20054;-61
2023/02/17 06:59:55;;;;;;;10.00;8.82;;;;;;;12.63;68.82;100495.38;4991976;28;20142;-61
2023/02/17 07:02:23;;;;;;;10.07;9.07;;;;;;;12.57;69.47;100497.50;4989140;28;20391;-60
2023/02/17 07:04:51;;;;;;;10.50;9.45;;;;;;;12.64;68.98;100486.69;4991299;28;20057;-60
2023/02/17 07:07:18;;;;;;;10.30;9.30;;;;;;;12.61;69.41;100506.06;4990334;28;20062;-60
2023/02/17 07:09:45;;;;;;;10.57;9.48;;;;;;;12.63;69.54;100492.59;4989247;28;20065;-61
2023/02/17 07:12:12;;;;;;;12.35;9.73;;;;;;;12.62;69.26;100474.16;4988065;28;20073;-61
2023/02/17 07:14:40;;;;;;;12.30;10.55;;;;;;;12.51;70.01;100504.41;4990552;28;20050;-61
2023/02/17 07:17:07;;;;;;;11.60;10.40;;;;;;;12.50;69.63;100491.59;4989055;28;20066;-60
2023/02/17 07:19:35;;;;;;;11.23;10.13;;;;;;;12.57;69.37;100495.53;4990170;28;20046;-61
2023/02/17 07:22:03;;;;;;;12.20;10.23;;;;;;;12.57;70.20;100491.91;4989193;28;20055;-61
2023/02/17 07:24:30;;;;;;;12.40;11.13;;;;;;;12.49;70.24;100493.53;4988283;28;20459;-60
2023/02/17 07:26:59;;;;;;;12.50;11.18;;;;;;;12.47;71.03;100484.66;4988813;28;20498;-60
2023/02/17 07:29:27;;;;;;;11.77;10.52;;;;;;;12.57;71.31;100495.53;4988347;28;20050;-59
2023/02/17 07:31:54;;;;;;;11.27;10.15;;;;;;;12.51;71.45;100505.22;4992595;28;20051;-60
2023/02/17 07:34:22;;;;;;;16.55;11.95;;;;;;;12.42;72.24;100487.63;4995141;28;20066;-61
2023/02/17 07:36:50;;;;;;;12.00;10.40;;;;;;;12.54;71.85;100512.16;4995746;28;20058;-60
2023/02/17 07:39:17;;;;;;;12.48;10.52;;;;;;;12.50;72.34;100509.16;4993512;28;20050;-61
2023/02/17 07:41:45;;;;;;;11.45;10.25;;;;;;;12.50;72.22;100499.97;4996296;28;20054;-60
2023/02/17 07:44:12;;;;;;;13.02;10.55;;;;;;;12.47;72.90;100493.03;4995974;28;20442;-60
2023/02/17 07:46:39;;;;;;;12.45;11.15;;;;;;;12.43;74.11;100503.25;4995329;28;20422;-61
2023/02/17 07:49:06;;;;;;;12.30;11.00;;;;;;;12.49;74.31;100493.53;4997750;28;20054;-61
2023/02/17 07:51:34;;;;;;;12.60;11.00;;;;;;;12.47;74.09;100501.44;4996204;28;20050;-60
2023/02/17 07:54:02;;;;;;;10.90;9.70;;;;;;;12.35;74.69;100504.88;4993196;28;20403;-61
2023/02/17 07:56:32;;;;;;;10.60;9.57;;;;;;;12.34;74.89;100485.66;4992682;28;20055;-60
2023/02/17 07:58:59;;;;;;;11.73;10.57;;;;;;;12.35;74.92;100485.31;4992619;28;20050;-60
2023/02/17 08:01:26;;;;;;;12.05;10.85;;;;;;;12.30;74.79;100490.22;4990997;28;20054;-60
2023/02/17 08:03:55;;;;;;;10.65;9.65;;;;;;;12.37;74.55;100485.81;4989967;28;20058;-60
2023/02/17 08:06:25;;;;;;;11.70;9.95;;;;;;;12.38;74.76;100483.84;4992778;28;20042;-61
2023/02/17 08:14:27;;;;;;;11.70;10.48;;;;;;;12.47;74.09;100470.69;4998814;28;20057;-61
2023/02/17 08:16:55;;;;;;;11.98;9.70;;;;;;;12.46;74.57;100480.25;4989214;28;20054;-64
2023/02/17 08:19:24;;;;;;;11.63;10.43;;;;;;;12.41;74.64;100462.81;4986140;28;20062;-64
2023/02/17 08:21:52;;;;;;;11.05;9.95;;;;;;;12.32;74.21;100471.19;4985602;28;20050;-63
2023/02/17 08:24:20;;;;;;;11.35;8.90;;;;;;;12.48;74.00;100475.16;4985485;28;20487;-64
2023/02/17 08:26:49;;;;;;;11.55;9.60;;;;;;;12.44;73.98;100473.34;4986490;28;20062;-65
2023/02/17 08:29:19;;;;;;;11.48;10.18;;;;;;;12.45;74.29;100469.38;4988159;28;20069;-59
2023/02/17 08:31:46;;;;;;;10.52;9.32;;;;;;;12.56;74.32;100476.31;4989246;28;20050;-59
2023/02/17 08:34:14;;;;;;;10.65;9.45;;;;;;;12.65;73.45;100463.16;4989786;28;20415;-60
2023/02/17 08:36:41;;;;;;;11.05;9.75;;;;;;;12.68;73.21;100467.25;4988112;28;20050;-60
2023/02/17 08:39:12;;;;;;;11.50;10.23;;;;;;;12.61;73.80;100480.91;4987512;28;20062;-65
2023/02/17 08:41:40;;;;;;;11.10;9.93;;;;;;;12.71;73.25;100475.00;4986704;28;20502;-65
2023/02/17 08:44:11;;;;;;;11.10;10.00;;;;;;;12.84;72.59;100464.81;4991067;28;20058;-60
2023/02/17 08:46:39;;;;;;;12.32;10.43;;;;;;;12.90;72.16;100471.88;4989345;28;20405;-59
2023/02/17 08:49:07;;;;;;;10.88;9.77;;;;;;;12.93;71.61;100460.81;4990620;28;20058;-59
2023/02/17 08:51:35;;;;;;;9.90;8.88;;;;;;;13.00;72.30;100466.75;4989778;28;20069;-64
2023/02/17 08:54:05;;;;;;;10.38;9.30;;;;;;;12.94;72.54;100462.50;4987764;28;20062;-62
2023/02/17 08:56:34;;;;;;;10.10;9.07;;;;;;;13.07;71.87;100457.03;4986521;28;20058;-65
2023/02/17 08:59:01;;;;;;;10.47;8.90;;;;;;;13.07;70.90;100462.63;4987456;28;20073;-65
2023/02/17 09:01:31;;;;;;;10.07;8.68;;;;;;;13.07;71.50;100457.03;4988013;28;20423;-64
2023/02/17 09:04:00;;;;;;;9.43;8.38;;;;;;;13.15;71.47;100464.59;4989998;28;20458;-65
2023/02/17 09:06:32;;;;;;;10.37;9.30;;;;;;;13.02;71.57;100479.56;4987066;28;20130;-65
2023/02/17 09:09:00;;;;;;;9.48;8.48;;;;;;;13.11;71.49;100467.22;4986986;28;20512;-65
2023/02/17 09:11:27;;;;;;;9.13;8.25;;;;;;;13.25;70.84;100478.25;4987178;28;20058;-64
2023/02/17 09:13:59;;;;;;;9.23;8.32;;;;;;;13.35;70.79;100480.69;4989530;28;20077;-64
2023/02/17 09:16:26;;;;;;;8.65;7.72;;;;;;;13.49;69.20;100483.28;4982949;28;20062;-62
2023/02/17 09:18:55;;;;;;;8.10;7.30;;;;;;;13.64;69.49;100481.94;4987422;28;20138;-65
2023/02/17 09:21:23;;;;;;;6.67;5.97;;;;;;;13.65;68.94;100488.34;4989081;28;20050;-64
2023/02/17 09:23:52;;;;;;;7.35;6.65;;;;;;;13.75;68.38;100477.63;4982809;28;20387;-64
2023/02/17 09:26:20;;;;;;;7.78;6.80;;;;;;;13.91;67.81;100494.66;4987484;28;20043;-64
2023/02/17 09:28:47;;;;;;;7.82;7.00;;;;;;;14.04;66.88;100486.38;4987239;28;20061;-64
2023/02/17 09:31:18;;;;;;;7.40;6.25;;;;;;;14.02;67.03;100487.50;4987037;28;20054;-63
2023/02/17 09:33:47;;;;;;;7.97;6.50;;;;;;;13.97;66.38;100473.72;4989133;28;20500;-64
2023/02/17 09:36:18;;;;;;;7.00;6.00;;;;;;;14.30;65.14;100472.19;4985628;28;20054;-63
2023/02/17 09:38:46;;;;;;;6.53;5.57;;;;;;;14.19;66.11;100471.78;4986206;28;20066;-64
2023/02/17 09:41:19;;;;;;;8.52;5.65;;;;;;;14.26;66.08;100471.22;4988026;28;20042;-63
2023/02/17 09:43:46;;;;;;;6.90;5.50;;;;;;;14.35;65.93;100472.81;4988246;28;20066;-64
2023/02/17 09:46:19;;;;;;;7.43;5.45;;;;;;;14.64;65.19;100473.16;4985016;28;20065;-63
2023/02/17 09:48:48;;;;;;;8.98;5.40;;;;;;;14.67;64.55;100466.84;4986282;28;20634;-64
2023/02/17 09:51:23;;;;;;;8.30;5.18;;;;;;;14.73;63.51;100466.31;4988720;28;20054;-63
2023/02/17 09:53:58;;;;;;;5.78;5.18;;;;;;;14.79;63.57;100459.31;4984135;28;20054;-64
2023/02/17 09:56:30;;;;;;;7.20;4.90;;;;;;;14.65;63.75;100469.19;4985276;28;20426;-64
2023/02/17 09:59:01;;;;;;;5.93;4.90;;;;;;;14.87;63.57;100465.22;4985050;28;20513;-64
2023/02/17 10:01:31;;;;;;;6.32;4.90;;;;;;;14.99;63.50;100479.28;4987219;28;20042;-64
2023/02/17 10:04:06;;;;;;;5.32;4.75;;;;;;;14.86;63.20;100452.34;4985680;28;20046;-65
2023/02/17 10:06:39;;;;;;;6.70;5.32;;;;;;;14.99;62.15;100449.25;4986628;28;20069;-65
2023/02/17 10:09:14;;;;;;;5.50;4.93;;;;;;;14.93;63.21;100453.44;4983076;28;20054;-65
2023/02/17 10:11:48;;;;;;;6.10;4.85;;;;;;;14.88;62.97;100464.84;4984092;28;20491;-64
2023/02/17 10:14:21;;;;;;;5.47;4.57;;;;;;;14.88;62.79;100456.44;4982965;28;20050;-62
2023/02/17 10:16:53;;;;;;;5.90;4.50;;;;;;;14.99;63.03;100460.47;4983260;28;20514;-65
2023/02/17 10:19:25;;;;;;;5.05;4.55;;;;;;;15.06;62.09;100461.91;4985584;28;20050;-65
2023/02/17 10:22:02;;;;;;;5.97;4.95;;;;;;;15.14;62.54;100453.41;4987077;28;20050;-65
2023/02/17 10:24:29;;;;;;;4.97;4.47;;;;;;;15.31;61.40;100452.38;4985079;28;20073;-60
2023/02/17 10:27:21;;;;;;;7.40;4.72;;;;;;;15.33;62.18;100461.28;4988145;28;20069;-60
2023/02/17 10:30:02;;;;;;;6.00;4.20;;;;;;;15.52;60.59;100468.34;4986845;28;20491;-59
2023/02/17 10:32:32;;;;;;;5.85;4.70;;;;;;;15.59;60.85;100488.22;4985163;28;20057;-59
2023/02/17 10:35:13;;;;;;;5.68;4.68;;;;;;;15.63;60.97;100483.56;4988553;28;20050;-59
2023/02/17 10:37:47;;;;;;;5.13;3.92;;;;;;;15.94;59.47;100491.47;4984474;28;20403;-60
2023/02/17 10:40:19;;;;;;;6.78;4.30;;;;;;;16.03;59.28;100489.34;4984722;28;20053;-60
2023/02/17 10:42:50;;;;;;;5.90;4.28;;;;;;;15.97;59.13;100492.75;4986916;28;20065;-59
2023/02/17 10:45:26;;;;;;;8.07;4.00;;;;;;;16.10;58.84;100483.16;4986631;28;20083;-59
2023/02/17 10:48:01;;;;;;;6.30;4.43;;;;;;;16.12;59.09;100491.22;4986453;28;20062;-58
2023/02/17 10:50:28;;;;;;;6.20;4.25;;;;;;;16.31;58.34;100468.16;4987186;28;20073;-58
2023/02/17 10:52:57;;;;;;;4.88;3.72;;;;;;;16.53;58.91;100473.25;4986629;28;20061;-59
2023/02/17 10:55:33;;;;;;;4.80;3.83;;;;;;;16.41;58.69;100478.91;4991201;28;20053;-65
2023/02/17 10:58:06;;;;;;;4.78;4.10;;;;;;;16.05;59.37;100469.34;4988100;28;20081;-62
2023/02/17 11:00:33;;;;;;;6.95;4.40;;;;;;;15.79;60.76;100467.72;4989430;28;20062;-58
2023/02/17 11:03:01;;;;;;;5.57;4.65;;;;;;;15.71;60.70;100460.19;4986964;28;20172;-58
2023/02/17 11:05:31;;;;;;;5.70;4.10;;;;;;;15.54;60.42;100477.22;4986939;28;20073;-58
2023/02/17 11:08:03;;;;;;;5.80;4.03;;;;;;;15.67;60.72;100464.84;4989391;28;20058;-58
2023/02/17 11:10:33;;;;;;;5.43;4.35;;;;;;;15.70;60.85;100452.91;4990845;28;20062;-59
2023/02/17 11:13:02;;;;;;;5.13;4.10;;;;;;;15.86;60.92;100471.94;4992044;28;20582;-59
2023/02/17 11:15:34;;;;;;;4.63;4.15;;;;;;;15.89;60.46;100454.34;4992217;28;20424;-59
2023/02/17 11:18:11;;;;;;;5.03;3.60;;;;;;;16.00;59.93;100447.09;4989429;28;20062;-58
2023/02/17 11:20:38;;;;;;;5.10;3.97;;;;;;;16.12;60.11;100438.66;4989838;28;20053;-58
2023/02/17 11:23:22;;;;;;;7.13;3.70;;;;;;;16.33;58.90;100434.88;4989570;28;20054;-58
2023/02/17 11:25:58;;;;;;;5.03;3.90;;;;;;;16.16;59.42;100425.53;4988624;28;20061;-59
2023/02/17 11:28:26;;;;;;;4.90;3.28;;;;;;;16.30;59.57;100444.84;4989858;28;20058;-58
2023/02/17 11:30:56;;;;;;;4.30;3.45;;;;;;;16.64;57.63;100435.03;4989114;28;20058;-57
2023/02/17 11:33:30;;;;;;;5.18;3.55;;;;;;;16.99;57.11;100434.47;4990723;28;20050;-59